sensor_id;sensor_type;location;lat;lon;timestamp;pressure;altitude;pressure_sealevel;temperature;humidity
55010;BME280;40903;51.638;7.528;2023-04-12T00:01:56;100177.66;;;9.07;73.81
55010;BME280;40903;51.638;7.528;2023-04-12T00:04:21;100168.38;;;9.08;73.47
55010;BME280;40903;51.638;7.528;2023-04-12T00:06:50;100162.94;;;9.08;73.19
55010;BME280;40903;51.638;7.528;2023-04-12T00:09:18;100151.50;;;9.11;72.79
55010;BME280;40903;51.638;7.528;2023-04-12T00:11:43;100144.97;;;9.12;73.38
55010;BME280;40903;51.638;7.528;2023-04-12T00:14:08;100143.03;;;9.13;73.12
55010;BME280;40903;51.638;7.528;2023-04-12T00:16:34;100150.09;;;9.14;72.71
55010;BME280;40903;51.638;7.528;2023-04-12T00:19:00;100142.97;;;9.18;72.75
55010;BME280;40903;51.638;7.528;2023-04-12T00:21:27;100142.66;;;9.19;72.25
55010;BME280;40903;51.638;7.528;2023-04-12T00:23:53;100139.44;;;9.17;71.27
55010;BME280;40903;51.638;7.528;2023-04-12T00:26:18;100134.50;;;9.19;71.17
55010;BME280;40903;51.638;7.528;2023-04-12T00:28:44;100126.81;;;9.26;70.38
55010;BME280;40903;51.638;7.528;2023-04-12T00:31:10;100127.31;;;9.28;70.30
55010;BME280;40903;51.638;7.528;2023-04-12T00:33:35;100115.53;;;9.33;70.09
55010;BME280;40903;51.638;7.528;2023-04-12T00:36:01;100120.59;;;9.39;69.47
55010;BME280;40903;51.638;7.528;2023-04-12T00:38:26;100118.41;;;9.41;69.33
55010;BME280;40903;51.638;7.528;2023-04-12T00:40:51;100113.97;;;9.45;69.25
55010;BME280;40903;51.638;7.528;2023-04-12T00:43:16;100115.28;;;9.48;68.72
55010;BME280;40903;51.638;7.528;2023-04-12T00:45:43;100104.19;;;9.44;69.50
55010;BME280;40903;51.638;7.528;2023-04-12T00:48:08;100104.69;;;9.46;69.80
55010;BME280;40903;51.638;7.528;2023-04-12T00:50:34;100100.78;;;9.52;68.61
55010;BME280;40903;51.638;7.528;2023-04-12T00:52:59;100095.13;;;9.49;68.87
55010;BME280;40903;51.638;7.528;2023-04-12T00:55:25;100091.59;;;9.48;69.25
55010;BME280;40903;51.638;7.528;2023-04-12T00:57:50;100102.47;;;9.48;70.02
55010;BME280;40903;51.638;7.528;2023-04-12T01:00:15;100099.16;;;9.51;69.28
55010;BME280;40903;51.638;7.528;2023-04-12T01:02:42;100084.28;;;9.62;68.71
55010;BME280;40903;51.638;7.528;2023-04-12T01:05:11;100080.06;;;9.69;68.24
55010;BME280;40903;51.638;7.528;2023-04-12T01:07:46;100082.78;;;9.69;68.02
55010;BME280;40903;51.638;7.528;2023-04-12T01:10:23;100069.66;;;9.71;68.49
55010;BME280;40903;51.638;7.528;2023-04-12T01:12:58;100071.88;;;9.69;68.59
55010;BME280;40903;51.638;7.528;2023-04-12T01:15:25;100067.16;;;9.75;68.43
55010;BME280;40903;51.638;7.528;2023-04-12T01:17:55;100057.78;;;9.81;68.17
55010;BME280;40903;51.638;7.528;2023-04-12T01:20:22;100048.72;;;9.85;68.22
55010;BME280;40903;51.638;7.528;2023-04-12T01:25:29;100046.41;;;9.92;67.83
55010;BME280;40903;51.638;7.528;2023-04-12T01:28:03;100041.06;;;10.01;67.61
55010;BME280;40903;51.638;7.528;2023-04-12T01:30:29;100035.03;;;10.04;68.21
55010;BME280;40903;51.638;7.528;2023-04-12T01:32:56;100036.75;;;10.13;67.26
55010;BME280;40903;51.638;7.528;2023-04-12T01:35:25;100026.75;;;10.09;68.25
55010;BME280;40903;51.638;7.528;2023-04-12T01:37:51;100031.59;;;10.12;68.26
55010;BME280;40903;51.638;7.528;2023-04-12T01:40:17;100029.09;;;10.15;68.24
55010;BME280;40903;51.638;7.528;2023-04-12T01:42:43;100013.72;;;10.19;69.08
55010;BME280;40903;51.638;7.528;2023-04-12T01:45:08;100012.13;;;10.18;68.94
55010;BME280;40903;51.638;7.528;2023-04-12T01:47:34;100003.78;;;10.15;69.45
55010;BME280;40903;51.638;7.528;2023-04-12T01:50:07;99999.94;;;10.16;70.07
55010;BME280;40903;51.638;7.528;2023-04-12T01:52:37;99997.72;;;10.18;70.43
55010;BME280;40903;51.638;7.528;2023-04-12T01:55:05;99989.94;;;10.11;70.34
55010;BME280;40903;51.638;7.528;2023-04-12T01:57:30;99978.72;;;10.13;70.80
55010;BME280;40903;51.638;7.528;2023-04-12T01:59:57;99979.25;;;10.15;71.31
55010;BME280;40903;51.638;7.528;2023-04-12T02:02:23;99976.81;;;10.13;71.97
55010;BME280;40903;51.638;7.528;2023-04-12T02:04:49;99978.72;;;10.13;71.43
55010;BME280;40903;51.638;7.528;2023-04-12T02:07:15;99966.84;;;10.09;71.91
55010;BME280;40903;51.638;7.528;2023-04-12T02:09:42;99962.91;;;10.15;72.44
55010;BME280;40903;51.638;7.528;2023-04-12T02:12:07;99958.16;;;10.07;72.55
55010;BME280;40903;51.638;7.528;2023-04-12T02:14:33;99947.44;;;9.97;73.60
55010;BME280;40903;51.638;7.528;2023-04-12T02:16:58;99932.72;;;9.98;73.93
55010;BME280;40903;51.638;7.528;2023-04-12T02:19:26;99934.34;;;9.99;74.76
55010;BME280;40903;51.638;7.528;2023-04-12T02:21:51;99929.50;;;9.96;75.26
55010;BME280;40903;51.638;7.528;2023-04-12T02:24:16;99932.94;;;9.88;75.68
55010;BME280;40903;51.638;7.528;2023-04-12T02:26:41;99924.78;;;9.88;76.28
55010;BME280;40903;51.638;7.528;2023-04-12T02:29:07;99923.97;;;9.87;77.34
55010;BME280;40903;51.638;7.528;2023-04-12T02:31:33;99922.06;;;9.88;77.22
55010;BME280;40903;51.638;7.528;2023-04-12T02:33:59;99911.78;;;9.85;78.26
55010;BME280;40903;51.638;7.528;2023-04-12T02:36:25;99900.06;;;9.84;78.99
55010;BME280;40903;51.638;7.528;2023-04-12T02:38:50;99888.97;;;9.81;79.30
55010;BME280;40903;51.638;7.528;2023-04-12T02:41:18;99882.03;;;9.75;80.58
55010;BME280;40903;51.638;7.528;2023-04-12T02:43:44;99879.44;;;9.70;81.37
55010;BME280;40903;51.638;7.528;2023-04-12T02:46:10;99869.66;;;9.69;81.28
55010;BME280;40903;51.638;7.528;2023-04-12T02:48:37;99870.25;;;9.66;81.46
55010;BME280;40903;51.638;7.528;2023-04-12T02:51:03;99862.00;;;9.71;81.30
55010;BME280;40903;51.638;7.528;2023-04-12T02:53:28;99860.38;;;9.70;81.00
55010;BME280;40903;51.638;7.528;2023-04-12T02:55:53;99849.78;;;9.68;81.66
55010;BME280;40903;51.638;7.528;2023-04-12T02:58:18;99848.09;;;9.59;82.20
55010;BME280;40903;51.638;7.528;2023-04-12T03:00:44;99846.91;;;9.52;83.21
55010;BME280;40903;51.638;7.528;2023-04-12T03:03:10;99834.00;;;9.57;83.00
55010;BME280;40903;51.638;7.528;2023-04-12T03:05:35;99825.22;;;9.60;82.89
55010;BME280;40903;51.638;7.528;2023-04-12T03:08:02;99827.53;;;9.53;83.34
55010;BME280;40903;51.638;7.528;2023-04-12T03:10:27;99818.78;;;9.56;83.42
55010;BME280;40903;51.638;7.528;2023-04-12T03:12:52;99806.38;;;9.50;84.10
55010;BME280;40903;51.638;7.528;2023-04-12T03:15:17;99793.25;;;9.52;84.05
55010;BME280;40903;51.638;7.528;2023-04-12T03:17:43;99794.69;;;9.50;84.25
55010;BME280;40903;51.638;7.528;2023-04-12T03:20:08;99791.47;;;9.48;84.84
55010;BME280;40903;51.638;7.528;2023-04-12T03:22:34;99789.53;;;9.48;85.41
55010;BME280;40903;51.638;7.528;2023-04-12T03:25:00;99783.59;;;9.46;86.01
55010;BME280;40903;51.638;7.528;2023-04-12T03:27:26;99773.72;;;9.50;86.09
55010;BME280;40903;51.638;7.528;2023-04-12T03:29:51;99768.00;;;9.38;87.33
55010;BME280;40903;51.638;7.528;2023-04-12T03:32:17;99741.03;;;9.28;88.46
55010;BME280;40903;51.638;7.528;2023-04-12T03:34:42;99746.75;;;9.27;89.49
55010;BME280;40903;51.638;7.528;2023-04-12T03:37:09;99737.69;;;9.31;89.60
55010;BME280;40903;51.638;7.528;2023-04-12T03:39:34;99723.09;;;9.27;90.10
55010;BME280;40903;51.638;7.528;2023-04-12T03:42:00;99710.13;;;9.24;89.56
55010;BME280;40903;51.638;7.528;2023-04-12T03:44:25;99709.28;;;9.24;89.48
55010;BME280;40903;51.638;7.528;2023-04-12T03:46:50;99711.19;;;9.23;89.86
55010;BME280;40903;51.638;7.528;2023-04-12T03:49:15;99712.13;;;9.19;90.28
55010;BME280;40903;51.638;7.528;2023-04-12T03:51:41;99695.00;;;9.18;88.55
55010;BME280;40903;51.638;7.528;2023-04-12T03:54:07;99685.94;;;9.23;88.38
55010;BME280;40903;51.638;7.528;2023-04-12T03:56:32;99690.38;;;9.19;88.96
55010;BME280;40903;51.638;7.528;2023-04-12T03:58:58;99691.66;;;9.21;88.22
55010;BME280;40903;51.638;7.528;2023-04-12T04:01:23;99679.38;;;9.24;87.28
55010;BME280;40903;51.638;7.528;2023-04-12T04:03:48;99678.06;;;9.21;87.17
55010;BME280;40903;51.638;7.528;2023-04-12T04:06:13;99674.22;;;9.22;87.53
55010;BME280;40903;51.638;7.528;2023-04-12T04:08:41;99668.63;;;9.19;88.24
55010;BME280;40903;51.638;7.528;2023-04-12T04:11:08;99651.81;;;9.17;87.44
55010;BME280;40903;51.638;7.528;2023-04-12T04:13:33;99643.66;;;9.17;87.49
55010;BME280;40903;51.638;7.528;2023-04-12T04:16:01;99639.00;;;9.17;87.04
55010;BME280;40903;51.638;7.528;2023-04-12T04:18:26;99642.41;;;9.23;87.28
55010;BME280;40903;51.638;7.528;2023-04-12T04:20:51;99634.56;;;9.21;87.05
55010;BME280;40903;51.638;7.528;2023-04-12T04:23:17;99633.16;;;9.24;87.04
55010;BME280;40903;51.638;7.528;2023-04-12T04:25:42;99622.75;;;9.26;87.43
55010;BME280;40903;51.638;7.528;2023-04-12T04:28:09;99614.22;;;9.19;87.85
55010;BME280;40903;51.638;7.528;2023-04-12T04:30:34;99610.56;;;9.23;87.63
55010;BME280;40903;51.638;7.528;2023-04-12T04:33:02;99620.16;;;9.21;88.18
55010;BME280;40903;51.638;7.528;2023-04-12T04:35:27;99615.50;;;9.21;87.64
55010;BME280;40903;51.638;7.528;2023-04-12T04:37:53;99604.13;;;9.19;88.54
55010;BME280;40903;51.638;7.528;2023-04-12T04:40:18;99606.25;;;9.22;88.45
55010;BME280;40903;51.638;7.528;2023-04-12T04:42:46;99594.38;;;9.18;89.10
55010;BME280;40903;51.638;7.528;2023-04-12T04:45:18;99589.84;;;9.14;90.11
55010;BME280;40903;51.638;7.528;2023-04-12T04:47:46;99587.47;;;9.12;90.06
55010;BME280;40903;51.638;7.528;2023-04-12T04:50:11;99581.69;;;9.14;90.18
55010;BME280;40903;51.638;7.528;2023-04-12T04:52:36;99574.84;;;9.16;89.95
55010;BME280;40903;51.638;7.528;2023-04-12T04:55:03;99577.06;;;9.14;90.51
55010;BME280;40903;51.638;7.528;2023-04-12T04:57:28;99576.59;;;9.12;91.02
55010;BME280;40903;51.638;7.528;2023-04-12T04:59:53;99568.09;;;9.14;91.16
55010;BME280;40903;51.638;7.528;2023-04-12T05:02:19;99567.00;;;9.15;91.46
55010;BME280;40903;51.638;7.528;2023-04-12T05:04:45;99567.31;;;9.13;91.28
55010;BME280;40903;51.638;7.528;2023-04-12T05:07:10;99557.56;;;9.12;91.90
55010;BME280;40903;51.638;7.528;2023-04-12T05:09:38;99557.72;;;9.16;91.55
55010;BME280;40903;51.638;7.528;2023-04-12T05:12:03;99545.56;;;9.13;91.72
55010;BME280;40903;51.638;7.528;2023-04-12T05:14:28;99552.09;;;9.12;92.40
55010;BME280;40903;51.638;7.528;2023-04-12T05:16:54;99552.09;;;9.12;93.19
55010;BME280;40903;51.638;7.528;2023-04-12T05:19:19;99545.16;;;9.06;94.64
55010;BME280;40903;51.638;7.528;2023-04-12T05:21:44;99533.19;;;9.07;94.81
55010;BME280;40903;51.638;7.528;2023-04-12T05:24:10;99532.19;;;9.03;96.11
55010;BME280;40903;51.638;7.528;2023-04-12T05:26:35;99532.69;;;9.05;96.50
55010;BME280;40903;51.638;7.528;2023-04-12T05:29:00;99523.63;;;9.10;96.55
55010;BME280;40903;51.638;7.528;2023-04-12T05:31:26;99520.41;;;9.08;96.57
55010;BME280;40903;51.638;7.528;2023-04-12T05:33:52;99525.66;;;9.04;97.92
55010;BME280;40903;51.638;7.528;2023-04-12T05:36:18;99522.63;;;9.06;98.15
55010;BME280;40903;51.638;7.528;2023-04-12T05:38:44;99518.59;;;9.03;98.11
55010;BME280;40903;51.638;7.528;2023-04-12T05:41:09;99515.09;;;9.03;97.93
55010;BME280;40903;51.638;7.528;2023-04-12T05:43:35;99505.34;;;9.02;99.59
55010;BME280;40903;51.638;7.528;2023-04-12T05:46:01;99505.16;;;8.98;100.00
55010;BME280;40903;51.638;7.528;2023-04-12T05:48:26;99510.59;;;8.98;100.00
55010;BME280;40903;51.638;7.528;2023-04-12T05:50:52;99491.75;;;9.02;100.00
55010;BME280;40903;51.638;7.528;2023-04-12T05:53:17;99495.06;;;8.99;100.00
55010;BME280;40903;51.638;7.528;2023-04-12T05:55:43;99494.06;;;8.95;100.00
55010;BME280;40903;51.638;7.528;2023-04-12T05:58:08;99491.66;;;8.93;100.00
55010;BME280;40903;51.638;7.528;2023-04-12T06:00:34;99485.44;;;8.93;100.00
55010;BME280;40903;51.638;7.528;2023-04-12T06:03:00;99490.25;;;8.96;100.00
55010;BME280;40903;51.638;7.528;2023-04-12T06:05:25;99479.00;;;8.89;100.00
55010;BME280;40903;51.638;7.528;2023-04-12T06:07:50;99485.25;;;8.89;100.00
55010;BME280;40903;51.638;7.528;2023-04-12T06:10:16;99471.84;;;8.93;100.00
55010;BME280;40903;51.638;7.528;2023-04-12T06:12:41;99466.69;;;8.91;100.00
55010;BME280;40903;51.638;7.528;2023-04-12T06:15:06;99476.59;;;8.87;100.00
55010;BME280;40903;51.638;7.528;2023-04-12T06:17:32;99457.28;;;8.89;100.00
55010;BME280;40903;51.638;7.528;2023-04-12T06:19:57;99458.88;;;8.90;100.00
55010;BME280;40903;51.638;7.528;2023-04-12T06:22:22;99454.34;;;8.85;100.00
55010;BME280;40903;51.638;7.528;2023-04-12T06:24:47;99450.53;;;8.86;100.00
55010;BME280;40903;51.638;7.528;2023-04-12T06:27:13;99447.50;;;8.88;100.00
55010;BME280;40903;51.638;7.528;2023-04-12T06:29:38;99447.50;;;8.88;100.00
55010;BME280;40903;51.638;7.528;2023-04-12T06:32:03;99436.50;;;8.93;100.00
55010;BME280;40903;51.638;7.528;2023-04-12T06:34:28;99428.06;;;8.94;100.00
55010;BME280;40903;51.638;7.528;2023-04-12T06:36:53;99422.47;;;8.99;100.00
55010;BME280;40903;51.638;7.528;2023-04-12T06:39:19;99416.22;;;8.99;100.00
55010;BME280;40903;51.638;7.528;2023-04-12T06:41:44;99408.09;;;9.07;100.00
55010;BME280;40903;51.638;7.528;2023-04-12T06:44:11;99414.66;;;9.06;100.00
55010;BME280;40903;51.638;7.528;2023-04-12T06:46:36;99399.59;;;9.00;100.00
55010;BME280;40903;51.638;7.528;2023-04-12T06:49:02;99404.59;;;9.07;100.00
55010;BME280;40903;51.638;7.528;2023-04-12T06:51:27;99391.44;;;9.00;100.00
55010;BME280;40903;51.638;7.528;2023-04-12T06:53:52;99394.66;;;9.02;100.00
55010;BME280;40903;51.638;7.528;2023-04-12T06:56:18;99394.03;;;9.05;100.00
55010;BME280;40903;51.638;7.528;2023-04-12T06:58:43;99389.69;;;9.04;100.00
55010;BME280;40903;51.638;7.528;2023-04-12T07:01:08;99388.25;;;8.98;100.00
55010;BME280;40903;51.638;7.528;2023-04-12T07:03:34;99375.63;;;9.02;100.00
55010;BME280;40903;51.638;7.528;2023-04-12T07:06:00;99372.16;;;9.10;100.00
55010;BME280;40903;51.638;7.528;2023-04-12T07:08:26;99359.97;;;9.08;100.00
55010;BME280;40903;51.638;7.528;2023-04-12T07:10:52;99361.28;;;9.10;100.00
55010;BME280;40903;51.638;7.528;2023-04-12T07:13:17;99353.59;;;9.12;100.00
55010;BME280;40903;51.638;7.528;2023-04-12T07:15:43;99353.75;;;9.16;100.00
55010;BME280;40903;51.638;7.528;2023-04-12T07:18:08;99346.59;;;9.20;100.00
55010;BME280;40903;51.638;7.528;2023-04-12T07:20:33;99345.78;;;9.19;100.00
55010;BME280;40903;51.638;7.528;2023-04-12T07:22:58;99342.13;;;9.24;100.00
55010;BME280;40903;51.638;7.528;2023-04-12T07:25:24;99340.72;;;9.26;100.00
55010;BME280;40903;51.638;7.528;2023-04-12T07:27:49;99338.13;;;9.30;100.00
55010;BME280;40903;51.638;7.528;2023-04-12T07:30:14;99326.81;;;9.36;100.00
55010;BME280;40903;51.638;7.528;2023-04-12T07:32:39;99326.66;;;9.33;100.00
55010;BME280;40903;51.638;7.528;2023-04-12T07:35:05;99328.06;;;9.30;100.00
55010;BME280;40903;51.638;7.528;2023-04-12T07:37:30;99322.34;;;9.32;100.00
55010;BME280;40903;51.638;7.528;2023-04-12T07:39:55;99318.34;;;9.38;100.00
55010;BME280;40903;51.638;7.528;2023-04-12T07:42:20;99314.66;;;9.34;100.00
55010;BME280;40903;51.638;7.528;2023-04-12T07:44:46;99310.81;;;9.35;100.00
55010;BME280;40903;51.638;7.528;2023-04-12T07:47:11;99312.09;;;9.37;100.00
55010;BME280;40903;51.638;7.528;2023-04-12T07:49:36;99304.44;;;9.39;100.00
55010;BME280;40903;51.638;7.528;2023-04-12T07:52:01;99305.22;;;9.48;100.00
55010;BME280;40903;51.638;7.528;2023-04-12T07:54:27;99298.84;;;9.53;100.00
55010;BME280;40903;51.638;7.528;2023-04-12T07:56:59;99290.84;;;9.56;100.00
55010;BME280;40903;51.638;7.528;2023-04-12T07:59:24;99287.66;;;9.63;100.00
55010;BME280;40903;51.638;7.528;2023-04-12T08:01:49;99282.38;;;9.66;100.00
55010;BME280;40903;51.638;7.528;2023-04-12T08:04:15;99282.22;;;9.79;100.00
55010;BME280;40903;51.638;7.528;2023-04-12T08:06:40;99279.81;;;9.78;100.00
55010;BME280;40903;51.638;7.528;2023-04-12T08:09:06;99279.03;;;9.86;100.00
55010;BME280;40903;51.638;7.528;2023-04-12T08:11:31;99274.22;;;9.83;100.00
55010;BME280;40903;51.638;7.528;2023-04-12T08:13:59;99267.50;;;9.89;100.00
55010;BME280;40903;51.638;7.528;2023-04-12T08:16:24;99272.13;;;9.97;100.00
55010;BME280;40903;51.638;7.528;2023-04-12T08:18:50;99269.13;;;10.07;100.00
55010;BME280;40903;51.638;7.528;2023-04-12T08:21:15;99267.50;;;10.14;100.00
55010;BME280;40903;51.638;7.528;2023-04-12T08:23:40;99268.63;;;10.22;100.00
55010;BME280;40903;51.638;7.528;2023-04-12T08:26:06;99264.94;;;10.26;100.00
55010;BME280;40903;51.638;7.528;2023-04-12T08:28:31;99260.59;;;10.34;100.00
55010;BME280;40903;51.638;7.528;2023-04-12T08:30:57;99271.78;;;10.41;100.00
55010;BME280;40903;51.638;7.528;2023-04-12T08:33:23;99265.69;;;10.44;100.00
55010;BME280;40903;51.638;7.528;2023-04-12T08:35:48;99267.44;;;10.48;100.00
55010;BME280;40903;51.638;7.528;2023-04-12T08:38:14;99287.81;;;10.51;100.00
55010;BME280;40903;51.638;7.528;2023-04-12T08:40:43;99277.41;;;10.44;100.00
55010;BME280;40903;51.638;7.528;2023-04-12T08:43:10;99290.84;;;10.41;100.00
55010;BME280;40903;51.638;7.528;2023-04-12T08:45:36;99279.47;;;10.39;100.00
55010;BME280;40903;51.638;7.528;2023-04-12T08:48:01;99285.41;;;10.41;100.00
55010;BME280;40903;51.638;7.528;2023-04-12T08:50:27;99280.31;;;10.39;100.00
55010;BME280;40903;51.638;7.528;2023-04-12T08:52:53;99274.38;;;10.37;100.00
55010;BME280;40903;51.638;7.528;2023-04-12T08:55:19;99263.63;;;10.32;100.00
55010;BME280;40903;51.638;7.528;2023-04-12T08:57:45;99260.88;;;10.41;100.00
55010;BME280;40903;51.638;7.528;2023-04-12T09:00:11;99246.78;;;10.39;100.00
55010;BME280;40903;51.638;7.528;2023-04-12T09:02:38;99243.41;;;10.42;100.00
55010;BME280;40903;51.638;7.528;2023-04-12T09:05:07;99240.16;;;10.57;100.00
55010;BME280;40903;51.638;7.528;2023-04-12T09:07:33;99241.41;;;10.68;100.00
55010;BME280;40903;51.638;7.528;2023-04-12T09:09:58;99233.22;;;10.68;100.00
55010;BME280;40903;51.638;7.528;2023-04-12T09:12:24;99232.06;;;10.77;100.00
55010;BME280;40903;51.638;7.528;2023-04-12T09:15:08;99228.38;;;10.82;100.00
55010;BME280;40903;51.638;7.528;2023-04-12T09:17:35;99234.63;;;10.82;100.00
55010;BME280;40903;51.638;7.528;2023-04-12T09:22:40;99222.44;;;10.80;100.00
55010;BME280;40903;51.638;7.528;2023-04-12T09:25:09;99216.38;;;10.74;100.00
55010;BME280;40903;51.638;7.528;2023-04-12T09:27:50;99218.59;;;10.81;100.00
55010;BME280;40903;51.638;7.528;2023-04-12T09:30:16;99211.81;;;10.87;100.00
55010;BME280;40903;51.638;7.528;2023-04-12T09:32:41;99213.91;;;10.90;100.00
55010;BME280;40903;51.638;7.528;2023-04-12T09:35:07;99215.34;;;10.87;100.00
55010;BME280;40903;51.638;7.528;2023-04-12T09:37:32;99211.28;;;10.93;100.00
55010;BME280;40903;51.638;7.528;2023-04-12T09:40:02;99213.25;;;10.93;100.00
55010;BME280;40903;51.638;7.528;2023-04-12T09:42:28;99211.25;;;11.02;100.00
55010;BME280;40903;51.638;7.528;2023-04-12T09:44:55;99209.66;;;11.01;100.00
55010;BME280;40903;51.638;7.528;2023-04-12T09:47:20;99221.84;;;11.03;100.00
55010;BME280;40903;51.638;7.528;2023-04-12T09:49:45;99210.63;;;11.05;100.00
55010;BME280;40903;51.638;7.528;2023-04-12T09:52:11;99212.69;;;11.08;100.00
55010;BME280;40903;51.638;7.528;2023-04-12T09:54:39;99211.16;;;11.19;100.00
55010;BME280;40903;51.638;7.528;2023-04-12T09:57:06;99205.47;;;11.32;100.00
55010;BME280;40903;51.638;7.528;2023-04-12T09:59:33;99202.25;;;11.30;100.00
55010;BME280;40903;51.638;7.528;2023-04-12T10:01:59;99201.75;;;11.37;100.00
55010;BME280;40903;51.638;7.528;2023-04-12T10:04:26;99200.00;;;11.53;100.00
55010;BME280;40903;51.638;7.528;2023-04-12T10:06:51;99207.03;;;11.62;100.00
55010;BME280;40903;51.638;7.528;2023-04-12T10:09:17;99201.50;;;11.71;100.00
55010;BME280;40903;51.638;7.528;2023-04-12T10:11:42;99210.16;;;11.73;100.00
55010;BME280;40903;51.638;7.528;2023-04-12T10:14:08;99199.22;;;11.73;100.00
55010;BME280;40903;51.638;7.528;2023-04-12T10:16:34;99194.16;;;11.63;100.00
55010;BME280;40903;51.638;7.528;2023-04-12T10:19:00;99201.25;;;11.55;100.00
55010;BME280;40903;51.638;7.528;2023-04-12T10:21:26;99187.00;;;11.58;100.00
55010;BME280;40903;51.638;7.528;2023-04-12T10:23:51;99191.66;;;11.58;100.00
55010;BME280;40903;51.638;7.528;2023-04-12T10:26:16;99193.38;;;11.62;100.00
55010;BME280;40903;51.638;7.528;2023-04-12T10:28:42;99184.13;;;11.75;100.00
55010;BME280;40903;51.638;7.528;2023-04-12T10:31:27;99188.16;;;11.89;100.00
55010;BME280;40903;51.638;7.528;2023-04-12T10:33:53;99179.47;;;12.08;100.00
55010;BME280;40903;51.638;7.528;2023-04-12T10:36:19;99171.44;;;12.35;100.00
55010;BME280;40903;51.638;7.528;2023-04-12T10:38:45;99175.69;;;12.57;100.00
55010;BME280;40903;51.638;7.528;2023-04-12T10:41:15;99170.00;;;12.86;100.00
55010;BME280;40903;51.638;7.528;2023-04-12T10:43:44;99160.09;;;13.05;100.00
55010;BME280;40903;51.638;7.528;2023-04-12T10:48:53;99167.38;;;13.13;100.00
55010;BME280;40903;51.638;7.528;2023-04-12T10:51:19;99167.03;;;13.03;100.00
55010;BME280;40903;51.638;7.528;2023-04-12T10:53:52;99161.56;;;13.15;100.00
55010;BME280;40903;51.638;7.528;2023-04-12T10:58:58;99165.13;;;13.15;100.00
55010;BME280;40903;51.638;7.528;2023-04-12T11:01:24;99162.72;;;13.14;100.00
55010;BME280;40903;51.638;7.528;2023-04-12T11:04:09;99156.91;;;13.15;100.00
55010;BME280;40903;51.638;7.528;2023-04-12T11:09:19;99161.88;;;13.25;100.00
55010;BME280;40903;51.638;7.528;2023-04-12T11:11:45;99153.69;;;13.13;98.04
55010;BME280;40903;51.638;7.528;2023-04-12T11:14:12;99156.22;;;13.06;99.72
55010;BME280;40903;51.638;7.528;2023-04-12T11:19:21;99153.84;;;12.93;100.00
55010;BME280;40903;51.638;7.528;2023-04-12T11:21:47;99164.75;;;12.81;100.00
55010;BME280;40903;51.638;7.528;2023-04-12T11:24:12;99166.13;;;12.63;100.00
55010;BME280;40903;51.638;7.528;2023-04-12T11:26:38;99159.81;;;12.38;100.00
55010;BME280;40903;51.638;7.528;2023-04-12T11:29:06;99165.94;;;12.23;100.00
55010;BME280;40903;51.638;7.528;2023-04-12T11:31:32;99169.78;;;12.10;100.00
55010;BME280;40903;51.638;7.528;2023-04-12T11:33:58;99163.94;;;12.00;100.00
55010;BME280;40903;51.638;7.528;2023-04-12T11:36:23;99175.34;;;12.02;100.00
55010;BME280;40903;51.638;7.528;2023-04-12T11:38:50;99172.25;;;12.03;100.00
55010;BME280;40903;51.638;7.528;2023-04-12T11:41:15;99169.50;;;11.91;100.00
55010;BME280;40903;51.638;7.528;2023-04-12T11:43:44;99174.56;;;11.81;100.00
55010;BME280;40903;51.638;7.528;2023-04-12T11:46:11;99173.38;;;11.70;100.00
55010;BME280;40903;51.638;7.528;2023-04-12T11:48:37;99177.38;;;11.73;100.00
55010;BME280;40903;51.638;7.528;2023-04-12T11:51:21;99174.44;;;11.77;100.00
55010;BME280;40903;51.638;7.528;2023-04-12T11:53:52;99178.72;;;11.87;100.00
55010;BME280;40903;51.638;7.528;2023-04-12T11:56:17;99180.09;;;11.93;100.00
55010;BME280;40903;51.638;7.528;2023-04-12T11:58:47;99178.53;;;12.04;100.00
55010;BME280;40903;51.638;7.528;2023-04-12T12:01:13;99172.06;;;12.20;100.00
55010;BME280;40903;51.638;7.528;2023-04-12T12:03:38;99176.31;;;12.30;100.00
55010;BME280;40903;51.638;7.528;2023-04-12T12:06:04;99173.94;;;12.28;100.00
55010;BME280;40903;51.638;7.528;2023-04-12T12:08:30;99166.22;;;12.42;100.00
55010;BME280;40903;51.638;7.528;2023-04-12T12:10:56;99166.44;;;12.49;100.00
55010;BME280;40903;51.638;7.528;2023-04-12T12:13:21;99166.25;;;12.54;100.00
55010;BME280;40903;51.638;7.528;2023-04-12T12:15:46;99165.75;;;12.52;100.00
55010;BME280;40903;51.638;7.528;2023-04-12T12:18:11;99174.63;;;12.37;100.00
55010;BME280;40903;51.638;7.528;2023-04-12T12:20:40;99183.94;;;12.24;100.00
55010;BME280;40903;51.638;7.528;2023-04-12T12:23:06;99192.28;;;11.95;100.00
55010;BME280;40903;51.638;7.528;2023-04-12T12:25:31;99195.75;;;11.84;100.00
55010;BME280;40903;51.638;7.528;2023-04-12T12:27:56;99195.03;;;11.75;100.00
55010;BME280;40903;51.638;7.528;2023-04-12T12:30:23;99198.44;;;11.72;100.00
55010;BME280;40903;51.638;7.528;2023-04-12T12:32:48;99188.97;;;11.70;100.00
55010;BME280;40903;51.638;7.528;2023-04-12T12:35:14;99180.69;;;11.98;100.00
55010;BME280;40903;51.638;7.528;2023-04-12T12:37:52;99186.47;;;12.29;100.00
55010;BME280;40903;51.638;7.528;2023-04-12T12:40:29;99184.13;;;12.64;100.00
55010;BME280;40903;51.638;7.528;2023-04-12T12:42:56;99186.97;;;12.91;98.66
55010;BME280;40903;51.638;7.528;2023-04-12T12:45:22;99187.59;;;13.09;92.30
55010;BME280;40903;51.638;7.528;2023-04-12T12:50:14;99189.50;;;13.20;89.32
55010;BME280;40903;51.638;7.528;2023-04-12T12:52:41;99190.06;;;13.26;87.83
55010;BME280;40903;51.638;7.528;2023-04-12T12:55:06;99182.06;;;13.33;89.58
55010;BME280;40903;51.638;7.528;2023-04-12T12:57:33;99176.91;;;13.43;88.86
55010;BME280;40903;51.638;7.528;2023-04-12T12:59:59;99185.09;;;13.55;86.05
55010;BME280;40903;51.638;7.528;2023-04-12T13:02:25;99183.13;;;13.68;85.75
55010;BME280;40903;51.638;7.528;2023-04-12T13:04:50;99181.09;;;13.92;84.25
55010;BME280;40903;51.638;7.528;2023-04-12T13:07:16;99176.16;;;14.25;84.92
55010;BME280;40903;51.638;7.528;2023-04-12T13:09:41;99168.13;;;14.47;78.91
55010;BME280;40903;51.638;7.528;2023-04-12T13:12:06;99170.22;;;14.38;71.93
55010;BME280;40903;51.638;7.528;2023-04-12T13:14:32;99165.09;;;14.52;77.72